Time;durP1;ratioP1;P1;durP2;ratioP2;P2;SDS_P1;SDS_P2;PMS_P1;PMS_P2;Temp;Humidity;BMP_temperature;BMP_pressure;BME280_temperature;BME280_humidity;BME280_pressure;Samples;Min_cycle;Max_cycle;Signal;HPM_P1;HPM_P2
2022/06/07 00:00:13;;;;;;;11.63;10.43;;;;;;;34.92;32.19;93891.38;5060086;28;20200;-73
2022/06/07 00:02:58;;;;;;;15.17;8.93;;;;;;;34.17;33.44;93889.94;5062269;28;20747;-73
2022/06/07 00:05:43;;;;;;;10.33;9.33;;;;;;;33.74;33.33;93899.44;5051061;28;20304;-72
2022/06/07 00:08:30;;;;;;;12.03;9.40;;;;;;;34.54;33.15;93902.31;5057739;28;20252;-76
2022/06/07 00:11:14;;;;;;;13.33;9.93;;;;;;;33.83;33.59;93900.72;5049820;28;20260;-77
2022/06/07 00:13:58;;;;;;;17.13;10.70;;;;;;;33.70;34.11;93902.41;5048963;28;20256;-76
2022/06/07 00:16:42;;;;;;;23.43;11.33;;;;;;;34.01;34.43;93909.09;5049189;28;20206;-78
2022/06/07 00:19:27;;;;;;;22.07;12.33;;;;;;;34.13;34.31;93907.47;5049768;28;20772;-76
2022/06/07 00:22:11;;;;;;;20.80;13.93;;;;;;;34.72;33.90;93910.00;5049042;28;20632;-75
2022/06/07 00:24:55;;;;;;;23.17;14.30;;;;;;;34.60;33.83;93913.84;5047558;28;20228;-75
2022/06/07 00:27:40;;;;;;;25.17;13.50;;;;;;;33.00;35.95;93922.31;5052077;28;20213;-74
2022/06/07 00:30:26;;;;;;;22.70;14.30;;;;;;;31.55;38.62;93925.25;5053530;28;20205;-71
2022/06/07 00:33:10;;;;;;;25.20;14.80;;;;;;;33.81;36.37;93923.31;5056944;28;20204;-75
2022/06/07 00:35:54;;;;;;;22.17;14.60;;;;;;;32.79;36.47;93933.47;5054040;28;20232;-72
2022/06/07 00:38:38;;;;;;;18.97;11.43;;;;;;;32.18;36.07;93935.59;5055521;28;20306;-71
2022/06/07 00:41:22;;;;;;;19.00;11.77;;;;;;;32.89;36.35;93935.53;5058492;28;20240;-74
2022/06/07 00:44:21;;;;;;;32.23;13.10;;;;;;;32.69;35.66;93935.78;5046215;28;20707;-71
2022/06/07 00:47:11;;;;;;;21.53;12.10;;;;;;;32.73;34.80;93929.91;5052501;28;20281;-70
2022/06/07 00:50:28;;;;;;;21.73;12.60;;;;;;;32.63;35.87;93932.91;5057025;28;20713;-70
2022/06/07 00:53:27;;;;;;;16.80;12.03;;;;;;;33.64;35.04;93926.44;5059174;28;20197;-71
2022/06/07 00:56:15;;;;;;;23.73;12.87;;;;;;;33.58;34.36;93928.72;5053824;28;20213;-68
2022/06/07 00:59:03;;;;;;;27.37;12.23;;;;;;;33.51;34.07;93924.50;5040603;28;20222;-70
2022/06/07 01:01:50;;;;;;;23.53;12.40;;;;;;;33.52;34.29;93912.09;5055731;28;20197;-69
2022/06/07 01:04:35;;;;;;;28.63;13.40;;;;;;;32.89;34.40;93900.69;5054300;28;20217;-68
2022/06/07 01:10:44;;;;;;;27.97;15.00;;;;;;;33.57;32.97;93887.34;5042343;28;20281;-72
2022/06/07 01:13:35;;;;;;;25.23;15.50;;;;;;;33.55;34.71;93869.19;5055818;28;20248;-71
2022/06/07 01:16:26;;;;;;;34.67;16.77;;;;;;;34.47;32.33;93863.19;5067312;28;20288;-71
2022/06/07 01:19:10;;;;;;;29.30;17.40;;;;;;;34.72;33.19;93852.47;5051764;28;20598;-70
2022/06/07 01:21:57;;;;;;;46.17;17.73;;;;;;;35.33;31.85;93848.19;5050919;28;20202;-71
2022/06/07 01:24:41;;;;;;;26.00;15.37;;;;;;;34.56;33.29;93835.34;5056896;28;20263;-70
2022/06/07 01:27:26;;;;;;;31.23;16.80;;;;;;;35.46;32.15;93831.13;5057127;28;20256;-72
2022/06/07 01:30:11;;;;;;;30.80;18.43;;;;;;;35.61;31.79;93838.75;5054300;28;20349;-73
2022/06/07 01:32:56;;;;;;;24.00;16.03;;;;;;;35.46;31.47;93834.78;5057015;28;20192;-74
2022/06/07 01:35:40;;;;;;;30.80;17.57;;;;;;;35.38;31.06;93837.88;5059647;28;20724;-69
2022/06/07 01:38:24;;;;;;;28.37;17.70;;;;;;;34.90;31.84;93825.88;5053204;28;20275;-70
2022/06/07 01:44:11;;;;;;;20.77;14.03;;;;;;;35.50;31.53;93823.00;5055292;28;20281;-70
2022/06/07 01:46:57;;;;;;;44.27;18.73;;;;;;;35.77;31.90;93825.28;5061063;28;20237;-70
2022/06/07 01:49:42;;;;;;;29.90;16.80;;;;;;;35.73;31.10;93822.47;5061747;28;20282;-70
2022/06/07 01:52:29;;;;;;;23.40;15.50;;;;;;;35.29;31.23;93819.16;5045349;28;20201;-70
2022/06/07 01:55:18;;;;;;;30.70;15.43;;;;;;;35.75;31.53;93816.56;5057756;28;20197;-69
2022/06/07 01:58:09;;;;;;;26.77;16.30;;;;;;;35.72;31.18;93818.13;5056688;28;20760;-69
2022/06/07 02:00:54;;;;;;;38.97;19.00;;;;;;;36.06;31.29;93814.25;5054229;28;20249;-69
2022/06/07 02:03:39;;;;;;;22.17;15.30;;;;;;;35.62;30.56;93816.84;5055140;28;20253;-70
2022/06/07 02:06:23;;;;;;;36.30;16.43;;;;;;;35.72;31.60;93818.13;5064996;28;20225;-69
2022/06/07 02:09:08;;;;;;;22.20;14.13;;;;;;;35.72;30.55;93812.28;5055663;28;20690;-69
2022/06/07 02:11:52;;;;;;;25.20;15.20;;;;;;;35.50;30.80;93814.25;5052650;28;20561;-68
2022/06/07 02:14:39;;;;;;;35.23;18.57;;;;;;;35.57;30.99;93818.44;5056510;28;20236;-69
2022/06/07 02:17:24;;;;;;;27.93;16.80;;;;;;;35.73;30.79;93825.38;5055708;28;20593;-68
2022/06/07 02:20:21;;;;;;;33.60;18.03;;;;;;;35.48;31.31;93822.34;5050142;28;20233;-69
2022/06/07 02:23:06;;;;;;;25.67;16.73;;;;;;;34.94;31.36;93827.25;5054300;28;20205;-69
2022/06/07 02:25:53;;;;;;;26.83;17.13;;;;;;;34.85;31.91;93807.06;5062481;28;20209;-69
2022/06/07 02:28:40;;;;;;;27.73;16.90;;;;;;;34.18;31.73;93810.66;5063194;28;20188;-69
2022/06/07 02:31:26;;;;;;;45.33;20.80;;;;;;;34.38;33.10;93815.38;5052847;28;20197;-68
2022/06/07 02:34:14;;;;;;;35.93;19.53;;;;;;;35.39;31.87;93813.09;5053370;28;20639;-67
2022/06/07 02:37:02;;;;;;;31.27;17.90;;;;;;;35.07;31.65;93808.72;5052176;28;20207;-66
2022/06/07 02:39:46;;;;;;;26.90;18.77;;;;;;;34.58;31.75;93808.38;5056474;28;20230;-66
2022/06/07 02:42:30;;;;;;;28.70;17.67;;;;;;;33.53;32.57;93805.31;5056946;28;20206;-67
2022/06/07 02:45:15;;;;;;;25.00;16.07;;;;;;;34.26;32.50;93803.94;5057960;28;20205;-66
2022/06/07 02:47:59;;;;;;;30.27;17.50;;;;;;;34.13;32.83;93810.00;5061204;28;20209;-66
2022/06/07 02:50:43;;;;;;;26.70;16.13;;;;;;;34.86;32.72;93802.69;5044440;28;20229;-67
2022/06/07 02:53:27;;;;;;;25.83;15.00;;;;;;;35.46;31.67;93808.53;5056628;28;20190;-66
2022/06/07 02:56:11;;;;;;;35.63;16.77;;;;;;;35.72;31.25;93818.13;5055321;28;20313;-66
2022/06/07 02:58:56;;;;;;;27.83;17.00;;;;;;;34.69;30.80;93813.22;5047060;28;20272;-67
2022/06/07 03:01:42;;;;;;;23.47;16.13;;;;;;;34.24;32.25;93804.00;5042772;28;20212;-66
2022/06/07 03:04:28;;;;;;;36.03;18.67;;;;;;;35.30;31.67;93814.78;5059432;28;20213;-67
2022/06/07 03:07:12;;;;;;;37.57;17.97;;;;;;;35.56;31.62;93819.94;5054266;28;20280;-67
2022/06/07 03:09:57;;;;;;;19.73;13.90;;;;;;;34.84;31.58;93826.00;5054465;28;21050;-69
2022/06/07 03:12:42;;;;;;;29.63;16.10;;;;;;;35.68;31.40;93825.47;5062495;28;20197;-69
2022/06/07 03:15:30;;;;;;;22.27;14.30;;;;;;;35.82;29.37;93824.38;5048082;28;20683;-68
2022/06/07 03:18:19;;;;;;;21.80;14.60;;;;;;;35.97;30.84;93827.66;5053887;28;20280;-69
2022/06/07 03:21:03;;;;;;;19.93;12.23;;;;;;;34.98;30.44;93818.44;5055665;28;20197;-70
2022/06/07 03:23:48;;;;;;;18.00;11.93;;;;;;;35.14;31.33;93823.88;5053898;28;20340;-71
2022/06/07 03:26:33;;;;;;;14.70;9.23;;;;;;;35.05;30.70;93823.34;5046062;28;20819;-72
2022/06/07 03:29:25;;;;;;;16.97;11.77;;;;;;;34.72;31.21;93834.28;5056431;28;20784;-71
2022/06/07 03:32:09;;;;;;;19.67;13.07;;;;;;;34.64;32.11;93829.34;5050522;28;20201;-71
2022/06/07 03:34:54;;;;;;;20.03;11.57;;;;;;;35.10;31.14;93823.97;5056869;28;20260;-71
2022/06/07 03:37:39;;;;;;;15.83;11.37;;;;;;;35.23;31.81;93830.97;5056284;28;20292;-73
2022/06/07 03:43:28;;;;;;;13.40;9.00;;;;;;;34.28;32.05;93818.47;5052866;28;20228;-72
2022/06/07 03:46:16;;;;;;;12.67;8.60;;;;;;;34.98;32.09;93812.59;5050135;28;20735;-71
2022/06/07 03:49:03;;;;;;;12.73;8.43;;;;;;;35.15;30.45;93814.38;5051947;28;20192;-71
2022/06/07 03:51:48;;;;;;;13.17;8.23;;;;;;;34.47;31.67;93808.59;5069432;28;20197;-70
2022/06/07 03:54:33;;;;;;;10.70;7.13;;;;;;;34.59;29.74;93798.88;5049348;28;20197;-70
2022/06/07 03:57:18;;;;;;;13.27;6.97;;;;;;;34.71;32.02;93810.28;5055078;28;20229;-70
2022/06/07 04:00:07;;;;;;;12.73;8.40;;;;;;;34.13;32.01;93802.75;5050594;28;20208;-71
2022/06/07 04:02:59;;;;;;;10.87;8.10;;;;;;;34.79;30.63;93810.13;5058337;28;20690;-71
2022/06/07 04:05:45;;;;;;;11.83;8.70;;;;;;;35.13;30.67;93799.13;5053052;28;20217;-71
2022/06/07 04:08:32;;;;;;;17.00;8.87;;;;;;;35.01;31.60;93805.25;5057867;28;20243;-71
2022/06/07 04:11:20;;;;;;;9.23;8.07;;;;;;;34.89;30.27;93801.13;5053542;28;20260;-68
2022/06/07 04:14:11;;;;;;;11.47;8.43;;;;;;;34.77;30.14;93818.88;5051080;28;20208;-68
2022/06/07 04:16:55;;;;;;;11.37;7.33;;;;;;;34.30;32.75;93806.78;5031870;28;20636;-69
2022/06/07 04:19:43;;;;;;;8.27;6.93;;;;;;;34.58;31.89;93806.19;5053495;28;20224;-69
2022/06/07 04:22:28;;;;;;;7.73;6.93;;;;;;;34.62;31.89;93808.31;5049898;28;20206;-68
2022/06/07 04:25:17;;;;;;;16.97;8.80;;;;;;;35.09;31.53;93805.78;5054617;28;20701;-67
2022/06/07 04:28:03;;;;;;;8.53;6.40;;;;;;;35.00;31.12;93803.81;5041469;28;20620;-69
2022/06/07 04:30:49;;;;;;;8.77;6.87;;;;;;;33.24;30.91;93808.69;5052723;28;20205;-70
2022/06/07 04:33:39;;;;;;;9.07;7.20;;;;;;;33.96;31.98;93808.16;5055717;28;20197;-68
2022/06/07 04:36:27;;;;;;;7.40;5.93;;;;;;;34.21;32.35;93808.44;5054175;28;20211;-68
2022/06/07 04:39:13;;;;;;;5.00;4.60;;;;;;;34.47;31.17;93804.97;5049570;28;20221;-69
2022/06/07 04:42:03;;;;;;;6.37;5.77;;;;;;;34.22;32.19;93798.22;5052907;28;20197;-70
2022/06/07 04:44:58;;;;;;;5.97;5.33;;;;;;;34.88;31.65;93804.81;5033989;28;20194;-69
2022/06/07 04:48:01;;;;;;;5.60;5.10;;;;;;;34.85;31.55;93800.53;5048676;28;20217;-70
2022/06/07 04:51:00;;;;;;;6.17;4.50;;;;;;;34.62;30.63;93800.28;5052954;28;20204;-69
2022/06/07 04:53:46;;;;;;;4.93;4.47;;;;;;;34.54;32.56;93797.53;5055011;28;20712;-67
2022/06/07 04:56:35;;;;;;;5.37;4.87;;;;;;;33.96;31.53;93791.44;5050396;28;20579;-70
2022/06/07 04:59:20;;;;;;;5.33;4.80;;;;;;;34.13;33.23;93804.19;5053420;28;20333;-65
2022/06/07 05:02:18;;;;;;;6.40;4.97;;;;;;;34.15;32.46;93793.97;5032454;28;20279;-66
2022/06/07 05:05:05;;;;;;;8.40;5.40;;;;;;;35.02;30.83;93792.84;5061150;28;20246;-71
2022/06/07 05:07:49;;;;;;;8.40;5.77;;;;;;;35.07;31.52;93799.28;5069465;28;20220;-65
2022/06/07 05:10:39;;;;;;;6.33;5.43;;;;;;;35.24;31.88;93809.09;5054808;28;20240;-70
2022/06/07 05:13:24;;;;;;;7.03;4.77;;;;;;;34.75;30.71;93804.38;5046212;28;20252;-71
2022/06/07 05:16:08;;;;;;;5.00;4.50;;;;;;;34.95;31.59;93791.53;5085922;28;20690;-68
2022/06/07 05:18:54;;;;;;;4.90;4.47;;;;;;;35.17;31.34;93793.22;5066716;28;20292;-68
2022/06/07 05:21:40;;;;;;;10.27;4.87;;;;;;;34.11;31.45;93794.78;5054275;28;20202;-63
2022/06/07 05:24:24;;;;;;;6.80;5.00;;;;;;;33.81;32.78;93792.47;5057373;28;20217;-65
2022/06/07 05:27:13;;;;;;;5.50;4.23;;;;;;;34.77;32.80;93804.31;5054276;28;20678;-67
2022/06/07 05:29:59;;;;;;;9.00;4.63;;;;;;;35.22;32.20;93806.22;5053337;28;20197;-69
2022/06/07 05:33:01;;;;;;;5.07;3.90;;;;;;;34.43;31.85;93799.97;5063847;28;20201;-69
2022/06/07 05:35:56;;;;;;;7.03;4.33;;;;;;;35.32;32.38;93803.06;5042491;28;20728;-68
2022/06/07 05:38:41;;;;;;;4.17;3.30;;;;;;;35.10;31.45;93801.38;5049651;28;20344;-68
2022/06/07 05:41:32;;;;;;;5.80;4.23;;;;;;;33.87;31.73;93801.81;5055394;28;20232;-68
2022/06/07 05:44:23;;;;;;;6.23;4.17;;;;;;;33.98;32.86;93793.59;5054484;28;20189;-68
2022/06/07 05:47:10;;;;;;;5.60;4.70;;;;;;;34.88;32.42;93805.53;5058442;28;20210;-67
2022/06/07 05:50:09;;;;;;;4.93;4.43;;;;;;;35.27;31.74;93801.72;5058549;28;20189;-71
2022/06/07 05:52:53;;;;;;;4.20;3.83;;;;;;;35.48;31.28;93808.50;5056499;28;20197;-72
2022/06/07 05:55:38;;;;;;;8.73;3.57;;;;;;;34.25;31.66;93814.19;5054677;28;20277;-67
2022/06/07 05:58:23;;;;;;;4.80;4.20;;;;;;;35.07;32.00;93808.00;5062846;28;20289;-69
2022/06/07 06:01:07;;;;;;;12.23;5.63;;;;;;;35.42;31.19;93816.66;5052327;28;20228;-71
2022/06/07 06:03:56;;;;;;;7.83;4.77;;;;;;;35.25;32.11;93817.06;5056261;28;20293;-71
2022/06/07 06:06:41;;;;;;;4.83;3.40;;;;;;;34.28;32.22;93812.66;5056717;28;20208;-71
2022/06/07 06:12:29;;;;;;;4.87;3.57;;;;;;;35.59;32.24;93823.53;5055506;28;20563;-68
2022/06/07 06:15:22;;;;;;;3.50;3.17;;;;;;;35.29;30.60;93805.31;5047057;28;20300;-69
2022/06/07 06:18:07;;;;;;;5.60;3.00;;;;;;;35.44;30.32;93805.66;5053943;28;20224;-67
2022/06/07 06:20:55;;;;;;;3.00;2.70;;;;;;;35.42;31.53;93805.00;5061853;28;20208;-67
2022/06/07 06:23:43;;;;;;;3.00;2.70;;;;;;;35.96;29.77;93811.63;5052109;28;20196;-67
2022/06/07 06:26:28;;;;;;;4.03;2.87;;;;;;;36.07;31.11;93818.63;5043806;28;20259;-69
2022/06/07 06:29:13;;;;;;;3.10;2.80;;;;;;;35.91;30.15;93813.22;5059017;28;20765;-69
2022/06/07 06:31:58;;;;;;;3.53;2.77;;;;;;;34.45;31.06;93808.63;5050528;28;20252;-68
2022/06/07 06:34:44;;;;;;;3.13;2.37;;;;;;;34.14;32.36;93813.63;5027687;28;20666;-68
2022/06/07 06:37:30;;;;;;;3.27;2.80;;;;;;;35.57;31.94;93821.38;5048455;28;20229;-67
2022/06/07 06:40:18;;;;;;;5.37;3.50;;;;;;;35.78;31.70;93826.69;5051400;28;20265;-65
2022/06/07 06:43:17;;;;;;;4.70;2.90;;;;;;;35.97;31.06;93825.44;5048531;28;20210;-70
2022/06/07 06:46:27;;;;;;;3.97;2.67;;;;;;;35.87;31.45;93834.47;5047957;28;20281;-69
2022/06/07 06:49:13;;;;;;;2.60;2.40;;;;;;;34.23;31.10;93823.66;5046974;28;20202;-69
2022/06/07 06:51:59;;;;;;;4.40;2.60;;;;;;;35.15;31.23;93834.75;5047105;28;20560;-68
2022/06/07 06:54:47;;;;;;;4.33;2.60;;;;;;;35.12;31.92;93841.41;5050272;28;20209;-69
2022/06/07 06:57:40;;;;;;;5.23;2.47;;;;;;;35.00;31.49;93844.59;5048159;28;20252;-69
2022/06/07 07:00:26;;;;;;;4.53;3.30;;;;;;;33.97;33.13;93845.22;5050453;28;20678;-70
2022/06/07 07:03:10;;;;;;;3.73;3.00;;;;;;;35.44;31.58;93852.28;5050561;28;20232;-70
2022/06/07 07:05:56;;;;;;;5.00;4.00;;;;;;;34.35;32.28;93851.78;5052942;28;20677;-70
2022/06/07 07:08:46;;;;;;;7.80;3.50;;;;;;;34.06;33.58;93858.16;5051998;28;20205;-70
2022/06/07 07:11:40;;;;;;;10.20;4.00;;;;;;;33.66;32.92;93853.75;5037294;28;20192;-70
2022/06/07 07:14:28;;;;;;;4.07;3.73;;;;;;;32.43;33.29;93864.25;5050026;28;20317;-71
2022/06/07 07:17:14;;;;;;;4.73;4.20;;;;;;;33.28;33.62;93869.63;5046649;28;20210;-70
2022/06/07 07:19:59;;;;;;;8.60;4.97;;;;;;;34.06;33.28;93877.78;5059151;28;20213;-68
2022/06/07 07:22:44;;;;;;;24.87;14.67;;;;;;;33.00;32.12;93881.66;5049147;28;20197;-72
2022/06/07 07:25:28;;;;;;;7.40;6.70;;;;;;;32.49;34.92;93891.00;5050560;28;20289;-70
2022/06/07 07:28:11;;;;;;;8.03;5.87;;;;;;;33.78;33.23;93899.34;5048674;28;20293;-71
2022/06/07 07:31:05;;;;;;;13.87;7.47;;;;;;;33.46;33.79;93877.31;5045999;28;20222;-71
2022/06/07 07:33:51;;;;;;;13.77;6.20;;;;;;;33.30;33.01;93889.94;5057592;28;20229;-72
2022/06/07 07:36:37;;;;;;;41.10;8.43;;;;;;;34.48;34.12;93882.06;5047195;28;20264;-68
2022/06/07 07:39:23;;;;;;;16.80;8.03;;;;;;;35.16;33.35;93882.09;5058066;28;20221;-69
2022/06/07 07:42:08;;;;;;;8.90;5.80;;;;;;;35.37;31.76;93877.22;5050556;28;20586;-71
2022/06/07 07:44:57;;;;;;;11.23;5.23;;;;;;;35.54;32.63;93863.72;5059387;28;20407;-70
2022/06/07 07:47:42;;;;;;;14.50;5.73;;;;;;;35.58;32.74;93863.63;5055479;28;20264;-69
2022/06/07 07:50:27;;;;;;;9.93;5.17;;;;;;;35.07;32.26;93861.16;5053064;28;20229;-70
2022/06/07 07:53:15;;;;;;;11.23;4.40;;;;;;;35.08;32.42;93867.69;5047910;28;20209;-70
2022/06/07 07:55:59;;;;;;;7.87;4.43;;;;;;;34.28;32.93;93870.84;5057995;28;20201;-69
2022/06/07 07:58:44;;;;;;;7.03;4.57;;;;;;;34.15;32.46;93881.97;5055557;28;20244;-72
2022/06/07 08:01:31;;;;;;;9.50;4.93;;;;;;;34.24;34.64;93870.91;5048627;28;20201;-71
2022/06/07 08:04:16;;;;;;;4.73;3.77;;;;;;;32.84;33.63;93879.69;5056843;28;20239;-71
2022/06/07 08:07:05;;;;;;;10.07;5.37;;;;;;;35.22;34.13;93873.25;5050150;28;20197;-74
2022/06/07 08:09:49;;;;;;;4.30;3.90;;;;;;;34.74;32.70;93884.47;5050712;28;20201;-72
2022/06/07 08:12:33;;;;;;;6.77;4.40;;;;;;;35.32;33.15;93892.66;5058397;28;20751;-72
2022/06/07 08:15:20;;;;;;;7.73;3.30;;;;;;;33.85;33.64;93886.16;5041799;28;20197;-72
2022/06/07 08:18:05;;;;;;;6.13;3.80;;;;;;;33.58;33.84;93899.66;5039121;28;20584;-71
2022/06/07 08:20:50;;;;;;;6.77;3.00;;;;;;;32.91;34.91;93898.47;5055453;28;20209;-71
2022/06/07 08:23:36;;;;;;;5.53;3.00;;;;;;;33.44;35.11;93897.72;5045148;28;20196;-74
2022/06/07 08:26:21;;;;;;;4.57;3.90;;;;;;;34.93;33.21;93904.47;5061207;28;20254;-73
2022/06/07 08:29:05;;;;;;;4.93;3.43;;;;;;;33.25;32.97;93906.00;5049671;28;20251;-74
2022/06/07 08:31:49;;;;;;;5.20;3.30;;;;;;;34.61;32.98;93906.56;5050009;28;20281;-73
2022/06/07 08:37:37;;;;;;;5.37;3.30;;;;;;;33.54;32.73;93905.53;5060403;28;20236;-74
2022/06/07 08:40:36;;;;;;;10.63;2.97;;;;;;;34.03;34.07;93911.28;5058497;28;20678;-71
2022/06/07 08:43:23;;;;;;;5.80;3.63;;;;;;;34.20;34.13;93917.50;5044896;28;20247;-72
2022/06/07 08:46:09;;;;;;;8.47;2.97;;;;;;;33.63;34.20;93907.56;5059191;28;20267;-71
2022/06/07 08:48:53;;;;;;;7.87;3.37;;;;;;;34.86;33.64;93906.78;5053133;28;20205;-72
2022/06/07 08:52:19;;;;;;;4.03;2.63;;;;;;;34.76;34.12;93901.88;5057353;28;20299;-71
2022/06/07 08:55:25;;;;;;;15.27;13.70;;;;;;;33.78;34.46;93899.34;5053290;28;20285;-71
2022/06/07 08:58:17;;;;;;;4.83;2.63;;;;;;;33.55;33.99;93906.97;5051205;28;20233;-72
2022/06/07 09:01:30;;;;;;;12.70;11.40;;;;;;;31.95;35.20;93900.28;5055075;28;20206;-72
2022/06/07 09:04:25;;;;;;;5.87;5.37;;;;;;;32.59;34.18;93903.97;5037713;28;20576;-72
2022/06/07 09:07:15;;;;;;;9.77;8.17;;;;;;;32.59;33.79;93898.84;5048986;28;20562;-74
2022/06/07 09:13:17;;;;;;;8.90;7.23;;;;;;;32.31;34.10;93905.00;5050179;28;20672;-72
2022/06/07 09:16:02;;;;;;;7.83;7.13;;;;;;;33.15;34.59;93897.38;5053738;28;20212;-71
2022/06/07 09:18:50;;;;;;;8.87;8.00;;;;;;;32.32;35.59;93903.56;5053606;28;20229;-71
2022/06/07 09:21:39;;;;;;;9.57;8.40;;;;;;;33.77;33.96;93903.72;5050184;28;20247;-70
2022/06/07 09:24:23;;;;;;;7.90;7.20;;;;;;;34.03;33.32;93903.25;5050336;28;20678;-71
2022/06/07 09:27:20;;;;;;;9.03;8.10;;;;;;;33.60;33.02;93896.72;5055685;28;20685;-72
2022/06/07 09:30:17;;;;;;;8.47;7.63;;;;;;;34.18;33.08;93897.19;5048584;28;20197;-73
2022/06/07 09:33:10;;;;;;;7.90;6.70;;;;;;;34.49;32.11;93900.97;5043002;28;20219;-70
2022/06/07 09:36:17;;;;;;;8.33;6.67;;;;;;;34.06;33.79;93901.75;5059188;28;20569;-68
2022/06/07 09:39:14;;;;;;;8.83;6.67;;;;;;;34.90;33.76;93907.41;5053247;28;20816;-68
2022/06/07 09:42:15;;;;;;;5.37;4.87;;;;;;;35.18;32.09;93911.88;5059118;28;20194;-68
2022/06/07 09:45:12;;;;;;;6.40;5.70;;;;;;;33.84;33.13;93905.06;5046257;28;20274;-69
2022/06/07 09:47:57;;;;;;;7.40;6.23;;;;;;;34.60;32.52;93916.75;5051330;28;20201;-67
2022/06/07 09:50:41;;;;;;;6.17;5.67;;;;;;;34.56;32.38;93905.19;5048877;28;20201;-68
2022/06/07 09:53:31;;;;;;;6.63;6.03;;;;;;;35.34;32.32;93905.00;5057526;28;20749;-70
2022/06/07 09:56:24;;;;;;;5.70;5.20;;;;;;;35.05;31.50;93904.19;5050734;28;20205;-72
2022/06/07 09:59:19;;;;;;;6.47;5.87;;;;;;;34.60;32.42;93905.13;5053463;28;20261;-73
2022/06/07 10:02:14;;;;;;;6.63;5.93;;;;;;;35.84;31.65;93899.47;5055691;28;20670;-71
2022/06/07 10:05:30;;;;;;;7.33;6.53;;;;;;;35.31;30.62;93897.78;5051844;28;20213;-72
2022/06/07 10:08:29;;;;;;;3.97;3.63;;;;;;;35.24;32.07;93894.28;5062278;28;20217;-69
2022/06/07 10:11:35;;;;;;;4.07;3.57;;;;;;;34.99;32.79;93896.31;5057259;28;20193;-69
2022/06/07 10:14:23;;;;;;;2.90;2.70;;;;;;;34.61;30.98;93897.09;5044592;28;20734;-71
2022/06/07 10:17:20;;;;;;;2.67;2.40;;;;;;;34.63;32.76;93891.22;5049731;28;20194;-71
2022/06/07 10:20:31;;;;;;;3.70;2.90;;;;;;;34.62;32.77;93890.53;5057625;28;20309;-70
2022/06/07 10:23:59;;;;;;;48.77;9.13;;;;;;;35.73;32.72;93881.50;5045671;28;20260;-71
2022/06/07 10:27:00;;;;;;;114.37;14.70;;;;;;;35.51;31.45;93876.91;5056222;28;20340;-69
2022/06/07 10:30:17;;;;;;;399.53;36.17;;;;;;;36.26;30.24;93883.78;5053087;28;20312;-69
2022/06/07 10:33:16;;;;;;;15.27;3.57;;;;;;;36.30;32.28;93880.00;5057895;28;20312;-66
2022/06/07 10:36:25;;;;;;;10.33;4.13;;;;;;;37.07;29.10;93881.47;5060842;28;20677;-68
2022/06/07 10:39:24;;;;;;;57.53;7.17;;;;;;;38.20;31.20;93879.31;5055266;28;20748;-67
2022/06/07 10:42:24;;;;;;;2.70;2.50;;;;;;;36.04;30.63;93887.28;5056228;28;20570;-70
2022/06/07 10:45:26;;;;;;;4.33;3.00;;;;;;;36.95;31.38;93886.97;5056459;28;20204;-71
2022/06/07 10:48:33;;;;;;;3.50;3.20;;;;;;;35.45;32.25;93877.03;5045145;28;20237;-71
2022/06/07 10:54:52;;;;;;;3.33;3.13;;;;;;;35.17;31.38;93880.63;5053205;28;20208;-63
2022/06/07 10:58:08;;;;;;;4.13;3.80;;;;;;;35.95;32.02;93886.03;5052592;28;20189;-62
2022/06/07 11:01:08;;;;;;;3.80;3.50;;;;;;;36.40;31.21;93886.31;5054785;28;20221;-62
2022/06/07 11:04:10;;;;;;;3.83;3.20;;;;;;;34.75;34.43;93885.19;5047955;28;20268;-61
2022/06/07 11:10:04;;;;;;;5.23;4.77;;;;;;;38.76;32.83;93888.31;5050642;28;20273;-60
2022/06/07 11:13:16;;;;;;;2.57;2.47;;;;;;;37.85;27.78;93891.44;5048382;28;20252;-60
2022/06/07 11:16:11;;;;;;;4.03;2.90;;;;;;;39.84;27.74;93890.75;5052787;28;20197;-60
2022/06/07 11:18:55;;;;;;;6.17;2.83;;;;;;;38.16;30.25;93891.88;5055295;28;20217;-60
2022/06/07 11:21:43;;;;;;;3.97;2.65;;;;;;;39.35;26.98;93892.69;5046071;28;20237;-60
2022/06/07 11:24:32;;;;;;;4.03;2.40;;;;;;;40.28;26.33;93885.25;5050473;28;20192;-60
2022/06/07 11:27:19;;;;;;;2.17;1.85;;;;;;;39.21;27.79;93890.97;5053597;28;20340;-61
2022/06/07 11:30:34;;;;;;;1.40;1.30;;;;;;;37.80;29.59;93879.19;5049945;28;20197;-61
2022/06/07 11:33:30;;;;;;;5.00;4.60;;;;;;;39.35;25.72;93875.09;5060512;28;20256;-61
2022/06/07 11:36:23;;;;;;;1.45;1.35;;;;;;;41.94;23.93;93887.16;5056793;28;20254;-62
2022/06/07 11:39:20;;;;;;;1.92;1.65;;;;;;;42.10;23.15;93884.91;5049660;28;20256;-62
2022/06/07 11:42:07;;;;;;;0.75;0.75;;;;;;;41.65;21.97;93886.38;5066577;28;20259;-63
2022/06/07 11:45:03;;;;;;;1.85;0.63;;;;;;;43.10;21.88;93872.31;5051787;28;20206;-63
2022/06/07 11:47:47;;;;;;;1.25;0.57;;;;;;;40.88;22.05;93872.31;5053445;28;20336;-62
2022/06/07 11:50:41;;;;;;;1.73;0.50;;;;;;;43.73;19.68;93875.47;5053857;28;20201;-63
2022/06/07 11:53:25;;;;;;;1.30;0.80;;;;;;;44.17;18.96;93880.34;5060279;28;20689;-63
2022/06/07 11:56:11;;;;;;;1.40;0.85;;;;;;;44.69;18.14;93876.50;5053841;28;20193;-63
2022/06/07 11:58:58;;;;;;;0.50;0.40;;;;;;;42.45;18.77;93866.19;5058494;28;20398;-63
2022/06/07 12:01:46;;;;;;;0.75;0.50;;;;;;;40.86;20.74;93870.19;5054363;28;20193;-62
2022/06/07 12:04:32;;;;;;;2.65;2.10;;;;;;;42.50;20.05;93862.22;5057226;28;20212;-64
2022/06/07 12:07:47;;;;;;;1.30;0.60;;;;;;;40.45;20.44;93858.81;5053499;28;20264;-64
2022/06/07 12:10:40;;;;;;;0.90;0.90;;;;;;;42.44;19.08;93856.66;5049657;28;20237;-64
2022/06/07 12:13:51;;;;;;;1.17;0.50;;;;;;;41.99;18.41;93855.97;5047106;28;20213;-64
2022/06/07 12:16:40;;;;;;;0.35;0.35;;;;;;;43.48;17.64;93855.44;5053839;28;20279;-65
2022/06/07 12:19:26;;;;;;;2.38;0.52;;;;;;;44.83;16.25;93871.97;5055853;28;20209;-65
2022/06/07 12:22:14;;;;;;;0.63;0.55;;;;;;;43.32;17.94;93861.56;5045844;28;20289;-65
2022/06/07 12:25:11;;;;;;;1.48;1.20;;;;;;;42.09;18.34;93865.81;5048172;28;20197;-66
2022/06/07 12:27:56;;;;;;;0.43;0.35;;;;;;;44.82;16.46;93847.59;5059454;28;20335;-65
2022/06/07 12:30:43;;;;;;;1.90;0.30;;;;;;;46.35;14.84;93865.91;5052842;28;20252;-65
2022/06/07 12:33:32;;;;;;;0.57;0.30;;;;;;;43.74;16.89;93861.41;5061125;28;20233;-65
2022/06/07 12:36:25;;;;;;;2.97;0.50;;;;;;;45.52;15.64;93856.53;5054277;28;20197;-66
2022/06/07 12:39:13;;;;;;;1.48;1.20;;;;;;;44.94;15.79;93858.66;5056945;28;20811;-65
2022/06/07 12:42:03;;;;;;;4.47;3.25;;;;;;;43.31;17.75;93849.03;5063056;28;20201;-66
2022/06/07 12:44:56;;;;;;;1.25;0.60;;;;;;;42.44;18.26;93853.69;5052742;28;20271;-66
2022/06/07 12:47:41;;;;;;;0.55;0.50;;;;;;;43.11;17.90;93856.78;5043123;28;20224;-66
2022/06/07 12:50:35;;;;;;;2.20;1.58;;;;;;;43.23;17.34;93849.47;5059610;28;20240;-66
2022/06/07 12:53:23;;;;;;;1.35;0.60;;;;;;;43.51;16.73;93847.94;5053082;28;20567;-66
2022/06/07 12:56:12;;;;;;;1.17;0.98;;;;;;;44.44;16.72;93841.81;5049776;28;20272;-66
2022/06/07 12:58:58;;;;;;;3.88;0.80;;;;;;;44.08;16.54;93844.66;5051202;28;20713;-66
2022/06/07 13:01:45;;;;;;;1.40;0.60;;;;;;;44.60;16.56;93840.81;5052166;28;20198;-66
2022/06/07 13:04:36;;;;;;;5.53;2.67;;;;;;;44.31;16.16;93835.91;5048406;28;20665;-66
2022/06/07 13:07:20;;;;;;;25.27;16.70;;;;;;;42.57;17.68;93833.84;5048553;28;20288;-66
2022/06/07 13:10:06;;;;;;;2.33;2.08;;;;;;;42.82;17.67;93832.56;5047519;28;20269;-66
2022/06/07 13:12:56;;;;;;;0.75;0.50;;;;;;;41.57;18.41;93820.53;5055741;28;20471;-66
2022/06/07 13:16:02;;;;;;;0.85;0.45;;;;;;;41.42;19.27;93824.94;5057076;28;20583;-66
2022/06/07 13:19:05;;;;;;;0.60;0.60;;;;;;;43.16;17.67;93827.75;5048092;28;20220;-66
2022/06/07 13:21:59;;;;;;;2.88;0.70;;;;;;;41.57;19.07;93819.81;5042494;28;20619;-66
2022/06/07 13:24:46;;;;;;;0.90;0.57;;;;;;;41.61;18.64;93816.66;5054282;28;20205;-66
2022/06/07 13:27:43;;;;;;;1.75;0.70;;;;;;;42.35;18.07;93815.09;5049581;28;20748;-66
2022/06/07 13:30:41;;;;;;;1.77;0.70;;;;;;;43.25;17.79;93810.31;5058884;28;20186;-66
2022/06/07 13:33:26;;;;;;;0.60;0.40;;;;;;;41.43;17.40;93811.63;5057351;28;20572;-66
2022/06/07 13:36:39;;;;;;;0.52;0.40;;;;;;;43.09;16.66;93800.81;5054777;28;20217;-67